Glendale, California
Current Conditions -  °F | °C
As of 9:53 AM on Monday 24 Nov 2014 (Local Time) from KBUR Reporting Station
Clear Clear  
Wind Chill: 69°   Ceiling: Unl
Heat Index: 69°   Visibility: 10mi
Dew Point: 20°   Wind: 0mph
Humidity: 15%   Direction: NA
Pressure: 30.24"   Gusts: NA
Location:  34.15°N, 118.24°W
Report Text: KBUR 241753Z 00000KT 10SM CLR 21/M07 A3024 RMK AO2 SLP231 T02061067 10206 20122 51020
Loading
Personal Weather Stations






























Interactive Weather Map New forecast layout! Learn more

10-Day Weather Forecast

Advertisements
Track Severe Weather on mobile